createdAt,value
2023-02-15T00:00:14.677Z,0
2023-02-15T00:01:16.218Z,0
2023-02-15T00:02:16.654Z,0
2023-02-15T00:03:17.378Z,0
2023-02-15T00:04:17.590Z,0
2023-02-15T00:05:17.797Z,0
2023-02-15T00:06:18.780Z,0
2023-02-15T00:07:18.714Z,0
2023-02-15T00:08:20.217Z,0
2023-02-15T00:09:20.138Z,0
2023-02-15T00:10:20.716Z,0
2023-02-15T00:11:20.634Z,0
2023-02-15T00:12:21.004Z,0
2023-02-15T00:13:22.050Z,0
2023-02-15T00:14:22.714Z,0
2023-02-15T00:15:23.922Z,0
2023-02-15T00:16:23.809Z,0
2023-02-15T00:17:25.326Z,0
2023-02-15T00:18:24.957Z,0
2023-02-15T00:19:26.446Z,0
2023-02-15T00:20:26.099Z,0
2023-02-15T00:21:27.692Z,0
2023-02-15T00:22:28.193Z,0
2023-02-15T00:23:27.896Z,0
2023-02-15T00:24:29.121Z,0
2023-02-15T00:25:29.303Z,0
2023-02-15T00:26:30.232Z,0
2023-02-15T00:27:30.727Z,0
2023-02-15T00:28:30.943Z,0
2023-02-15T00:29:32.165Z,0
2023-02-15T00:30:32.574Z,0
2023-02-15T00:31:33.184Z,0
2023-02-15T00:32:32.868Z,0
2023-02-15T00:33:34.190Z,0
2023-02-15T00:34:34.145Z,0
2023-02-15T00:35:34.871Z,0
2023-02-15T00:36:36.160Z,0
2023-02-15T00:37:35.480Z,0
2023-02-15T00:38:37.120Z,0
2023-02-15T00:39:37.772Z,0
2023-02-15T00:40:39.291Z,0
2023-02-15T00:41:39.214Z,0
2023-02-15T00:42:39.704Z,0
2023-02-15T00:43:40.832Z,0
2023-02-15T00:44:41.041Z,0
2023-02-15T00:45:41.243Z,0
2023-02-15T00:46:42.207Z,0
2023-02-15T00:47:41.837Z,0
2023-02-15T00:48:43.350Z,0
2023-02-15T00:49:43.549Z,0
2023-02-15T00:50:43.938Z,0
2023-02-15T00:51:45.248Z,0
2023-02-15T00:52:45.193Z,0
2023-02-15T00:53:45.819Z,0
2023-02-15T00:54:45.444Z,0
2023-02-15T00:55:46.368Z,0
2023-02-15T00:56:46.998Z,0
2023-02-15T00:57:47.629Z,0
2023-02-15T00:58:48.843Z,0
2023-02-15T00:59:49.048Z,0
2023-02-15T01:00:48.962Z,0
2023-02-15T01:01:50.692Z,0
2023-02-15T01:02:51.187Z,0
2023-02-15T01:03:51.515Z,0
2023-02-15T01:04:51.955Z,0
2023-02-15T01:05:52.496Z,0
2023-02-15T01:06:53.074Z,0
2023-02-15T01:07:54.483Z,0
2023-02-15T01:08:53.546Z,0
2023-02-15T01:09:55.035Z,0
2023-02-15T01:10:55.227Z,0
2023-02-15T01:11:55.874Z,0
2023-02-15T01:12:57.061Z,0
2023-02-15T01:13:58.398Z,0
2023-02-15T01:14:58.072Z,0
2023-02-15T01:16:00.732Z,0
2023-02-15T01:17:00.208Z,0
2023-02-15T01:18:00.276Z,0
2023-02-15T01:19:01.489Z,0
2023-02-15T01:20:01.110Z,0
2023-02-15T01:21:02.623Z,0
2023-02-15T01:22:02.891Z,0
2023-02-15T01:23:03.106Z,0
2023-02-15T01:24:04.118Z,0
2023-02-15T01:25:04.602Z,0
2023-02-15T01:26:04.992Z,0
2023-02-15T01:27:05.181Z,0
2023-02-15T01:28:05.805Z,0
2023-02-15T01:29:05.749Z,0
2023-02-15T01:30:06.465Z,0
2023-02-15T01:31:07.296Z,0
2023-02-15T01:32:08.450Z,0
2023-02-15T01:33:07.436Z,0
2023-02-15T01:34:08.830Z,0
2023-02-15T01:35:08.762Z,0
2023-02-15T01:36:09.170Z,0
2023-02-15T01:37:09.456Z,0
2023-02-15T01:38:09.682Z,0
2023-02-15T01:39:11.022Z,0
2023-02-15T01:40:11.523Z,0
2023-02-15T01:41:11.464Z,0
2023-02-15T01:42:12.384Z,0
2023-02-15T01:43:13.014Z,0
2023-02-15T01:44:14.311Z,0
2023-02-15T01:45:14.517Z,0
2023-02-15T01:46:16.075Z,0
2023-02-15T01:47:15.288Z,0
2023-02-15T01:48:15.505Z,0
2023-02-15T01:49:16.426Z,0
2023-02-15T01:50:16.433Z,0
2023-02-15T01:51:17.750Z,0
2023-02-15T01:52:19.043Z,0
2023-02-15T01:53:18.947Z,0
2023-02-15T01:54:20.568Z,0
2023-02-15T01:55:23.179Z,0
2023-02-15T01:56:21.179Z,0
2023-02-15T01:57:21.406Z,0
2023-02-15T01:58:22.441Z,0
2023-02-15T01:59:22.658Z,0
2023-02-15T02:00:22.310Z,0
2023-02-15T02:01:23.872Z,0
2023-02-15T02:02:23.914Z,0
2023-02-15T02:03:23.941Z,0
2023-02-15T02:04:25.254Z,0
2023-02-15T02:05:25.847Z,0
2023-02-15T02:06:26.433Z,0
2023-02-15T02:07:27.046Z,0
2023-02-15T02:08:27.551Z,0
2023-02-15T02:09:26.914Z,0
2023-02-15T02:10:28.546Z,0
2023-02-15T02:11:29.487Z,0
2023-02-15T02:12:30.478Z,0
2023-02-15T02:13:30.118Z,0
2023-02-15T02:14:31.286Z,0
2023-02-15T02:15:31.201Z,0
2023-02-15T02:16:32.721Z,0
2023-02-15T02:17:32.656Z,0
2023-02-15T02:18:33.571Z,0
2023-02-15T02:19:34.213Z,0
2023-02-15T02:20:35.407Z,0
2023-02-15T02:21:36.645Z,0
2023-02-15T02:22:36.677Z,0
2023-02-15T02:23:37.162Z,0
2023-02-15T02:24:37.171Z,0
2023-02-15T02:25:38.090Z,0
2023-02-15T02:26:38.021Z,0
2023-02-15T02:27:39.217Z,0
2023-02-15T02:28:39.404Z,0
2023-02-15T02:29:39.892Z,0
2023-02-15T02:30:40.946Z,0
2023-02-15T02:31:41.794Z,0
2023-02-15T02:32:41.224Z,0
2023-02-15T02:33:41.854Z,0
2023-02-15T02:34:42.878Z,0
2023-02-15T02:35:42.830Z,0
2023-02-15T02:36:44.344Z,0
2023-02-15T02:37:45.071Z,0
2023-02-15T02:38:45.264Z,0
2023-02-15T02:39:45.162Z,0
2023-02-15T02:40:46.096Z,0
2023-02-15T02:41:46.017Z,0
2023-02-15T02:42:47.226Z,0
2023-02-15T02:43:48.156Z,0
2023-02-15T02:44:48.457Z,0
2023-02-15T02:45:48.869Z,0
2023-02-15T02:46:49.446Z,0
2023-02-15T02:47:49.664Z,0
2023-02-15T02:48:50.167Z,0
2023-02-15T02:49:50.370Z,0
2023-02-15T02:50:50.935Z,0
2023-02-15T02:51:50.578Z,0
2023-02-15T02:52:51.968Z,0
2023-02-15T02:53:52.200Z,0
2023-02-15T02:54:52.520Z,0
2023-02-15T02:55:52.442Z,0
2023-02-15T02:56:53.645Z,0
2023-02-15T02:57:54.152Z,0
2023-02-15T02:58:54.080Z,0
2023-02-15T02:59:54.717Z,0
2023-02-15T03:00:55.643Z,0
2023-02-15T03:01:56.762Z,0
2023-02-15T03:02:57.333Z,0
2023-02-15T03:03:57.019Z,0
2023-02-15T03:04:58.307Z,0
2023-02-15T03:05:59.776Z,0
2023-02-15T03:07:00.119Z,0
2023-02-15T03:08:00.403Z,0
2023-02-15T03:09:00.024Z,0
2023-02-15T03:10:00.688Z,0
2023-02-15T03:11:01.612Z,0
2023-02-15T03:12:01.834Z,0
2023-02-15T03:13:02.454Z,0
2023-02-15T03:14:03.679Z,0
2023-02-15T03:15:04.709Z,0
2023-02-15T03:16:05.848Z,0
2023-02-15T03:17:05.342Z,0
2023-02-15T03:18:05.834Z,0
2023-02-15T03:19:05.182Z,0
2023-02-15T03:20:06.102Z,0
2023-02-15T03:21:06.757Z,0
2023-02-15T03:22:07.699Z,0
2023-02-15T03:23:08.277Z,0
2023-02-15T03:24:08.493Z,0
2023-02-15T03:25:07.932Z,0
2023-02-15T03:26:10.110Z,0
2023-02-15T03:27:09.765Z,0
2023-02-15T03:28:10.719Z,0
2023-02-15T03:29:11.648Z,0
2023-02-15T03:30:12.718Z,0
2023-02-15T03:31:13.094Z,0
2023-02-15T03:32:13.318Z,0
2023-02-15T03:33:13.534Z,0
2023-02-15T03:34:14.173Z,0
2023-02-15T03:35:15.225Z,0
2023-02-15T03:36:15.630Z,0
2023-02-15T03:37:19.027Z,0
2023-02-15T03:38:17.351Z,0
2023-02-15T03:39:17.277Z,0
2023-02-15T03:40:18.170Z,0
2023-02-15T03:41:19.389Z,0
2023-02-15T03:42:20.335Z,0
2023-02-15T03:43:21.544Z,0
2023-02-15T03:44:21.468Z,0
2023-02-15T03:45:22.453Z,0
2023-02-15T03:46:23.586Z,0
2023-02-15T03:47:23.845Z,0
2023-02-15T03:48:25.065Z,0
2023-02-15T03:49:24.411Z,0
2023-02-15T03:50:25.052Z,0
2023-02-15T03:51:26.296Z,0
2023-02-15T03:52:27.655Z,0
2023-02-15T03:53:28.254Z,0
2023-02-15T03:54:27.888Z,0
2023-02-15T03:55:28.949Z,0
2023-02-15T03:56:30.149Z,0
2023-02-15T03:57:30.488Z,0
2023-02-15T03:58:31.725Z,0
2023-02-15T03:59:31.354Z,0
2023-02-15T04:00:32.559Z,0
2023-02-15T04:01:33.896Z,0
2023-02-15T04:02:33.604Z,0
2023-02-15T04:03:35.064Z,0
2023-02-15T04:04:37.091Z,0
2023-02-15T04:05:34.769Z,0
2023-02-15T04:06:35.972Z,0
2023-02-15T04:07:35.922Z,0
2023-02-15T04:08:37.242Z,0
2023-02-15T04:09:37.441Z,0
2023-02-15T04:10:37.633Z,0
2023-02-15T04:11:37.827Z,0
2023-02-15T04:12:38.044Z,0
2023-02-15T04:13:38.277Z,0
2023-02-15T04:14:39.251Z,0
2023-02-15T04:15:39.736Z,0
2023-02-15T04:16:42.205Z,0
2023-02-15T04:17:41.411Z,0
2023-02-15T04:18:41.612Z,0
2023-02-15T04:19:41.800Z,0
2023-02-15T04:20:41.700Z,0
2023-02-15T04:21:43.220Z,0
2023-02-15T04:22:43.480Z,0
2023-02-15T04:23:43.497Z,0
2023-02-15T04:24:43.720Z,0
2023-02-15T04:25:44.798Z,0
2023-02-15T04:26:44.999Z,0
2023-02-15T04:27:44.924Z,0
2023-02-15T04:28:45.857Z,0
2023-02-15T04:29:46.466Z,0
2023-02-15T04:30:46.878Z,0
2023-02-15T04:31:48.639Z,0
2023-02-15T04:32:48.895Z,0
2023-02-15T04:33:49.390Z,0
2023-02-15T04:34:49.884Z,0
2023-02-15T04:35:50.206Z,0
2023-02-15T04:36:50.132Z,0
2023-02-15T04:37:51.356Z,0
2023-02-15T04:38:52.354Z,0
2023-02-15T04:39:52.841Z,0
2023-02-15T04:40:52.504Z,0
2023-02-15T04:41:53.993Z,0
2023-02-15T04:42:53.906Z,0
2023-02-15T04:43:54.539Z,0
2023-02-15T04:44:56.056Z,0
2023-02-15T04:45:56.101Z,0
2023-02-15T04:46:56.786Z,0
2023-02-15T04:47:57.754Z,0
2023-02-15T04:48:57.663Z,0
2023-02-15T04:49:58.868Z,0
2023-02-15T04:50:59.367Z,0
2023-02-15T04:51:59.563Z,0
2023-02-15T04:53:00.808Z,0
2023-02-15T04:54:01.094Z,0
2023-02-15T04:55:01.022Z,0
2023-02-15T04:56:02.834Z,0
2023-02-15T04:57:03.417Z,0
2023-02-15T04:58:03.345Z,0
2023-02-15T04:59:03.268Z,0
2023-02-15T05:00:04.492Z,0
2023-02-15T05:01:04.744Z,0
2023-02-15T05:02:05.682Z,0
2023-02-15T05:03:06.795Z,0
2023-02-15T05:04:06.332Z,0
2023-02-15T05:05:07.285Z,0
2023-02-15T05:06:08.762Z,0
2023-02-15T05:07:08.203Z,0
2023-02-15T05:08:09.428Z,0
2023-02-15T05:09:10.874Z,0
2023-02-15T05:10:11.360Z,0
2023-02-15T05:11:11.571Z,0
2023-02-15T05:12:12.079Z,0
2023-02-15T05:13:12.287Z,0
2023-02-15T05:14:13.211Z,0
2023-02-15T05:15:13.445Z,0
2023-02-15T05:16:14.816Z,0
2023-02-15T05:17:13.800Z,0
2023-02-15T05:18:15.049Z,0
2023-02-15T05:19:14.984Z,0
2023-02-15T05:20:16.191Z,0
2023-02-15T05:21:16.828Z,0
2023-02-15T05:22:17.491Z,0
2023-02-15T05:23:18.998Z,0
2023-02-15T05:24:19.578Z,0
2023-02-15T05:25:19.484Z,0
2023-02-15T05:26:20.405Z,0
2023-02-15T05:27:20.624Z,0
2023-02-15T05:28:21.970Z,0
2023-02-15T05:29:21.620Z,0
2023-02-15T05:30:22.454Z,0
2023-02-15T05:31:24.281Z,0
2023-02-15T05:32:24.225Z,0
2023-02-15T05:33:23.955Z,0
2023-02-15T05:34:25.164Z,0
2023-02-15T05:35:25.129Z,0
2023-02-15T05:36:26.821Z,0
2023-02-15T05:37:26.751Z,0
2023-02-15T05:38:27.752Z,0
2023-02-15T05:39:28.342Z,0
2023-02-15T05:40:28.576Z,0
2023-02-15T05:41:28.504Z,0
2023-02-15T05:42:29.140Z,0
2023-02-15T05:43:30.072Z,0
2023-02-15T05:44:30.581Z,0
2023-02-15T05:45:30.812Z,0
2023-02-15T05:46:31.717Z,0
2023-02-15T05:47:31.741Z,0
2023-02-15T05:48:31.949Z,0
2023-02-15T05:49:32.147Z,0
2023-02-15T05:50:32.512Z,0
2023-02-15T05:51:33.460Z,0
2023-02-15T05:52:34.098Z,0
2023-02-15T05:53:35.316Z,0
2023-02-15T05:54:36.653Z,0
2023-02-15T05:55:36.856Z,0
2023-02-15T05:56:37.904Z,0
2023-02-15T05:57:38.419Z,0
2023-02-15T05:58:38.646Z,0
2023-02-15T05:59:38.846Z,0
2023-02-15T06:00:39.064Z,0
2023-02-15T06:01:40.033Z,0
2023-02-15T06:02:40.219Z,0
2023-02-15T06:03:40.404Z,0
2023-02-15T06:04:40.335Z,0
2023-02-15T06:05:41.246Z,0
2023-02-15T06:06:42.033Z,0
2023-02-15T06:07:42.524Z,0
2023-02-15T06:08:42.464Z,0
2023-02-15T06:09:43.757Z,0
2023-02-15T06:10:43.963Z,0
2023-02-15T06:11:44.174Z,0
2023-02-15T06:12:44.087Z,0
2023-02-15T06:13:50.114Z,0
2023-02-15T06:14:46.705Z,0
2023-02-15T06:15:46.806Z,0
2023-02-15T06:16:47.192Z,0
2023-02-15T06:17:47.687Z,0
2023-02-15T06:18:47.886Z,0
2023-02-15T06:19:48.101Z,0
2023-02-15T06:20:49.022Z,5.63
2023-02-15T06:21:49.226Z,5.63
2023-02-15T06:22:49.435Z,5.63
2023-02-15T06:23:50.049Z,5.63
2023-02-15T06:24:50.336Z,5.63
2023-02-15T06:25:52.909Z,5.63
2023-02-15T06:26:51.173Z,5.63
2023-02-15T06:27:51.838Z,5.63
2023-02-15T06:28:52.795Z,5.63
2023-02-15T06:29:53.763Z,5.63
2023-02-15T06:30:55.449Z,11.25
2023-02-15T06:31:55.925Z,11.25
2023-02-15T06:32:56.182Z,11.25
2023-02-15T06:33:56.100Z,11.25
2023-02-15T06:34:59.904Z,11.25
2023-02-15T06:35:58.130Z,11.25
2023-02-15T06:36:58.571Z,11.25
2023-02-15T06:37:59.471Z,11.25
2023-02-15T06:39:00.412Z,11.25
2023-02-15T06:40:03.588Z,16.88
2023-02-15T06:41:01.010Z,16.88
2023-02-15T06:42:01.228Z,16.88
2023-02-15T06:43:01.160Z,16.88
2023-02-15T06:44:02.079Z,16.88
2023-02-15T06:45:04.308Z,16.88
2023-02-15T06:46:04.068Z,16.88
2023-02-15T06:47:05.211Z,16.88
2023-02-15T06:48:05.455Z,28.13
2023-02-15T06:49:05.658Z,33.75
2023-02-15T06:50:05.883Z,61.88
2023-02-15T06:51:06.545Z,174.38
2023-02-15T06:52:07.776Z,309.38
2023-02-15T06:53:07.989Z,360
2023-02-15T06:54:08.484Z,371.25
2023-02-15T06:55:08.804Z,354.38
2023-02-15T06:56:09.047Z,331.88
2023-02-15T06:57:09.399Z,275.63
2023-02-15T06:58:10.341Z,298.13
2023-02-15T06:59:10.645Z,185.63
2023-02-15T07:00:10.851Z,45
2023-02-15T07:01:11.554Z,39.38
2023-02-15T07:02:12.682Z,39.38
2023-02-15T07:03:12.064Z,39.38
2023-02-15T07:04:13.575Z,56.25
2023-02-15T07:05:13.987Z,56.25
2023-02-15T07:06:14.928Z,78.75
2023-02-15T07:07:15.746Z,95.63
2023-02-15T07:08:15.682Z,180
2023-02-15T07:09:17.204Z,180
2023-02-15T07:10:17.498Z,191.25
2023-02-15T07:11:17.434Z,196.88
2023-02-15T07:12:18.389Z,185.63
2023-02-15T07:13:19.618Z,191.25
2023-02-15T07:14:19.538Z,208.13
2023-02-15T07:15:20.760Z,157.5
2023-02-15T07:16:21.459Z,112.5
2023-02-15T07:17:46.799Z,67.5
2023-02-15T07:18:21.720Z,56.25
2023-02-15T07:19:22.687Z,78.75
2023-02-15T07:20:23.619Z,90
2023-02-15T07:21:24.539Z,56.25
2023-02-15T07:22:25.189Z,56.25
2023-02-15T07:23:26.688Z,95.63
2023-02-15T07:24:26.665Z,236.25
2023-02-15T07:25:27.001Z,236.25
2023-02-15T07:26:27.223Z,247.5
2023-02-15T07:27:30.259Z,303.75
2023-02-15T07:28:28.509Z,247.5
2023-02-15T07:29:29.016Z,393.75
2023-02-15T07:30:29.646Z,416.25
2023-02-15T07:31:30.425Z,320.63
2023-02-15T07:32:31.062Z,270
2023-02-15T07:33:31.360Z,534.38
2023-02-15T07:34:31.575Z,916.88
2023-02-15T07:35:32.070Z,793.13
2023-02-15T07:36:31.987Z,315
2023-02-15T07:37:33.623Z,84.38
2023-02-15T07:38:33.831Z,90
2023-02-15T07:39:34.361Z,151.88
2023-02-15T07:40:35.012Z,151.88
2023-02-15T07:41:35.532Z,118.13
2023-02-15T07:42:35.171Z,731.25
2023-02-15T07:43:36.148Z,1406.25
2023-02-15T07:44:37.651Z,1417.5
2023-02-15T07:45:37.302Z,978.75
2023-02-15T07:46:38.749Z,945
2023-02-15T07:47:38.789Z,1231.88
2023-02-15T07:48:41.899Z,1344.38
2023-02-15T07:49:41.086Z,950.63
2023-02-15T07:50:41.421Z,742.5
2023-02-15T07:51:42.088Z,973.13
2023-02-15T07:52:43.023Z,585
2023-02-15T07:53:43.681Z,466.88
2023-02-15T07:54:45.033Z,1327.5
2023-02-15T07:55:45.805Z,1867.5
2023-02-15T07:56:48.521Z,1620
2023-02-15T07:57:47.205Z,1361.25
2023-02-15T07:58:47.141Z,1153.13
2023-02-15T07:59:48.440Z,1237.5
2023-02-15T08:00:48.667Z,826.88
2023-02-15T08:01:49.610Z,410.63
2023-02-15T08:02:50.577Z,843.75
2023-02-15T08:03:51.086Z,1575
2023-02-15T08:04:51.746Z,1738.13
2023-02-15T08:05:52.282Z,1479.38
2023-02-15T08:06:52.794Z,1620
2023-02-15T08:07:52.685Z,1665
2023-02-15T08:08:53.914Z,1293.75
2023-02-15T08:09:54.886Z,787.5
2023-02-15T08:10:55.954Z,286.88
2023-02-15T08:11:55.899Z,410.63
2023-02-15T08:12:57.123Z,883.13
2023-02-15T08:13:57.741Z,1248.75
2023-02-15T08:14:57.981Z,1260
2023-02-15T08:15:58.513Z,1186.88
2023-02-15T08:16:59.156Z,1361.25
2023-02-15T08:17:59.317Z,1395
2023-02-15T08:18:59.543Z,1507.5
2023-02-15T08:19:59.485Z,1614.38
2023-02-15T08:21:00.986Z,1653.75
2023-02-15T08:22:00.940Z,1361.25
2023-02-15T08:23:02.181Z,1119.38
2023-02-15T08:24:02.464Z,1181.25
2023-02-15T08:25:03.798Z,1333.13
2023-02-15T08:26:04.317Z,1513.13
2023-02-15T08:27:06.139Z,1665
2023-02-15T08:28:04.783Z,1546.88
2023-02-15T08:29:05.862Z,793.13
2023-02-15T08:30:07.092Z,213.75
2023-02-15T08:31:08.092Z,433.13
2023-02-15T08:32:09.070Z,973.13
2023-02-15T08:33:09.085Z,967.5
2023-02-15T08:34:10.034Z,961.88
2023-02-15T08:35:10.734Z,838.13
2023-02-15T08:36:11.971Z,472.5
2023-02-15T08:37:13.208Z,225
2023-02-15T08:38:13.572Z,123.75
2023-02-15T08:39:14.110Z,123.75
2023-02-15T08:40:14.362Z,123.75
2023-02-15T08:41:15.437Z,450
2023-02-15T08:42:15.372Z,928.13
2023-02-15T08:43:16.312Z,748.13
2023-02-15T08:44:16.272Z,658.13
2023-02-15T08:45:16.955Z,804.38
2023-02-15T08:46:18.805Z,826.88
2023-02-15T08:47:19.112Z,590.63
2023-02-15T08:48:19.423Z,405
2023-02-15T08:49:19.650Z,354.38
2023-02-15T08:50:20.223Z,388.13
2023-02-15T08:51:20.694Z,388.13
2023-02-15T08:52:20.949Z,405
2023-02-15T08:53:22.355Z,540
2023-02-15T08:54:21.892Z,545.63
2023-02-15T08:55:22.426Z,461.25
2023-02-15T08:56:23.146Z,337.5
2023-02-15T08:57:23.081Z,303.75
2023-02-15T08:58:23.701Z,382.5
2023-02-15T08:59:25.261Z,337.5
2023-02-15T09:00:25.541Z,292.5
2023-02-15T09:01:27.141Z,258.75
2023-02-15T09:02:27.481Z,281.25
2023-02-15T09:03:28.020Z,348.75
2023-02-15T09:04:27.985Z,388.13
2023-02-15T09:05:29.249Z,388.13
2023-02-15T09:06:29.203Z,320.63
2023-02-15T09:07:30.740Z,230.63
2023-02-15T09:08:31.070Z,241.88
2023-02-15T09:09:31.315Z,253.13
2023-02-15T09:10:31.401Z,185.63
2023-02-15T09:11:33.036Z,157.5
2023-02-15T09:12:33.559Z,140.63
2023-02-15T09:13:33.836Z,146.25
2023-02-15T09:14:34.344Z,146.25
2023-02-15T09:15:34.635Z,140.63
2023-02-15T09:16:35.157Z,151.88
2023-02-15T09:17:35.386Z,157.5
2023-02-15T09:18:35.468Z,157.5
2023-02-15T09:19:37.028Z,253.13
2023-02-15T09:20:37.501Z,438.75
2023-02-15T09:21:37.770Z,528.75
2023-02-15T09:22:38.281Z,635.63
2023-02-15T09:23:43.442Z,675
2023-02-15T09:24:39.013Z,540
2023-02-15T09:25:39.266Z,331.88
2023-02-15T09:26:39.910Z,309.38
2023-02-15T09:27:40.462Z,511.88
2023-02-15T09:28:40.650Z,618.75
2023-02-15T09:29:41.930Z,641.25
2023-02-15T09:30:43.155Z,725.63
2023-02-15T09:31:43.811Z,736.88
2023-02-15T09:32:44.318Z,742.5
2023-02-15T09:33:44.909Z,759.38
2023-02-15T09:34:46.310Z,765
2023-02-15T09:35:46.563Z,776.25
2023-02-15T09:36:46.256Z,787.5
2023-02-15T09:37:47.532Z,804.38
2023-02-15T09:38:47.737Z,810
2023-02-15T09:39:49.169Z,810
2023-02-15T09:40:48.800Z,804.38
2023-02-15T09:41:49.432Z,804.38
2023-02-15T09:42:49.488Z,787.5
2023-02-15T09:43:50.752Z,618.75
2023-02-15T09:44:50.725Z,315
2023-02-15T09:45:51.105Z,393.75
2023-02-15T09:46:51.069Z,646.88
2023-02-15T09:47:51.052Z,708.75
2023-02-15T09:48:51.875Z,680.63
2023-02-15T09:49:52.378Z,641.25
2023-02-15T09:50:53.545Z,585
2023-02-15T09:51:52.813Z,528.75
2023-02-15T09:52:52.916Z,388.13
2023-02-15T09:53:54.249Z,388.13
2023-02-15T09:54:53.910Z,495
2023-02-15T09:55:55.466Z,556.88
2023-02-15T09:56:56.155Z,652.5
2023-02-15T09:57:56.381Z,753.75
2023-02-15T09:58:57.032Z,1012.5
2023-02-15T09:59:56.741Z,1231.88
2023-02-15T10:00:57.794Z,1333.13
2023-02-15T10:01:58.016Z,1473.75
2023-02-15T10:02:58.744Z,1479.38
2023-02-15T10:03:59.003Z,1175.63
2023-02-15T10:04:59.251Z,1136.25
2023-02-15T10:05:59.470Z,1029.38
2023-02-15T10:07:00.176Z,1046.25
2023-02-15T10:08:00.388Z,1209.38
2023-02-15T10:09:01.461Z,1063.13
2023-02-15T10:10:02.025Z,781.88
2023-02-15T10:11:01.935Z,601.88
2023-02-15T10:12:02.645Z,545.63
2023-02-15T10:13:02.890Z,511.88
2023-02-15T10:14:03.552Z,489.38
2023-02-15T10:15:04.784Z,562.5
2023-02-15T10:16:04.766Z,618.75
2023-02-15T10:17:05.711Z,568.13
2023-02-15T10:18:06.674Z,590.63
2023-02-15T10:19:07.168Z,703.13
2023-02-15T10:20:07.694Z,703.13
2023-02-15T10:21:08.434Z,697.5
2023-02-15T10:22:08.443Z,714.38
2023-02-15T10:23:08.696Z,669.38
2023-02-15T10:24:09.945Z,697.5
2023-02-15T10:25:09.618Z,736.88
2023-02-15T10:26:11.979Z,781.88
2023-02-15T10:27:11.574Z,843.75
2023-02-15T10:28:11.513Z,894.38
2023-02-15T10:29:12.056Z,973.13
2023-02-15T10:30:13.881Z,1091.25
2023-02-15T10:31:15.428Z,1406.25
2023-02-15T10:32:14.981Z,1575
2023-02-15T10:33:15.251Z,1676.25
2023-02-15T10:34:15.495Z,1704.38
2023-02-15T10:35:16.027Z,1738.13
2023-02-15T10:36:15.854Z,1631.25
2023-02-15T10:37:17.391Z,1535.63
2023-02-15T10:38:18.144Z,1693.13
2023-02-15T10:39:17.926Z,1811.25
2023-02-15T10:40:19.462Z,1738.13
2023-02-15T10:41:20.671Z,1788.75
2023-02-15T10:42:20.033Z,1805.63
2023-02-15T10:43:19.970Z,1726.88
2023-02-15T10:44:21.302Z,1710
2023-02-15T10:45:21.962Z,1766.25
2023-02-15T10:46:23.523Z,1794.38
2023-02-15T10:47:24.177Z,1828.13
2023-02-15T10:48:24.728Z,1698.75
2023-02-15T10:49:24.874Z,1760.63
2023-02-15T10:50:26.307Z,1760.63
2023-02-15T10:51:26.536Z,1715.63
2023-02-15T10:52:29.801Z,1749.38
2023-02-15T10:53:27.482Z,1698.75
2023-02-15T10:54:28.748Z,1642.5
2023-02-15T10:55:28.978Z,1642.5
2023-02-15T10:56:30.232Z,1625.63
2023-02-15T10:57:30.988Z,1659.38
2023-02-15T10:58:31.514Z,1687.5
2023-02-15T10:59:31.648Z,1670.63
2023-02-15T11:00:33.159Z,1681.88
2023-02-15T11:01:33.812Z,1659.38
2023-02-15T11:02:33.536Z,1636.88
2023-02-15T11:03:34.362Z,1625.63
2023-02-15T11:04:35.354Z,1591.88
2023-02-15T11:05:36.724Z,1513.13
2023-02-15T11:06:36.973Z,1445.63
2023-02-15T11:07:36.636Z,1321.88
2023-02-15T11:08:38.363Z,1293.75
2023-02-15T11:09:39.157Z,1215
2023-02-15T11:10:39.533Z,1198.13
2023-02-15T11:11:40.102Z,1243.13
2023-02-15T11:12:40.841Z,1029.38
2023-02-15T11:13:41.221Z,855
2023-02-15T11:14:41.441Z,871.88
2023-02-15T11:15:42.986Z,871.88
2023-02-15T11:16:42.923Z,821.25
2023-02-15T11:17:43.626Z,900
2023-02-15T11:18:45.175Z,984.38
2023-02-15T11:19:45.561Z,849.38
2023-02-15T11:20:46.244Z,736.88
2023-02-15T11:21:47.298Z,714.38
2023-02-15T11:22:47.821Z,675
2023-02-15T11:23:48.057Z,725.63
2023-02-15T11:24:48.426Z,793.13
2023-02-15T11:25:49.395Z,984.38
2023-02-15T11:26:50.439Z,1068.75
2023-02-15T11:27:53.263Z,911.25
2023-02-15T11:28:52.780Z,725.63
2023-02-15T11:29:53.117Z,630
2023-02-15T11:30:53.995Z,753.75
2023-02-15T11:31:54.925Z,821.25
2023-02-15T11:32:55.495Z,478.13
2023-02-15T11:33:56.014Z,753.75
2023-02-15T11:34:55.948Z,1231.88
2023-02-15T11:35:56.192Z,1186.88
2023-02-15T11:36:56.464Z,843.75
2023-02-15T11:37:57.707Z,343.13
2023-02-15T11:38:57.934Z,416.25
2023-02-15T11:39:59.014Z,933.75
2023-02-15T11:40:59.003Z,1091.25
2023-02-15T11:42:00.704Z,1102.5
2023-02-15T11:43:01.099Z,1299.38
2023-02-15T11:44:01.692Z,1344.38
2023-02-15T11:45:01.391Z,956.25
2023-02-15T11:46:02.443Z,517.5
2023-02-15T11:47:03.723Z,911.25
2023-02-15T11:48:04.239Z,1068.75
2023-02-15T11:49:03.901Z,556.88
2023-02-15T11:50:05.241Z,174.38
2023-02-15T11:51:05.897Z,213.75
2023-02-15T11:52:06.226Z,675
2023-02-15T11:53:06.462Z,900
2023-02-15T11:54:06.703Z,1051.88
2023-02-15T11:55:06.947Z,781.88
2023-02-15T11:56:06.895Z,618.75
2023-02-15T11:57:08.164Z,1046.25
2023-02-15T11:58:09.292Z,596.25
2023-02-15T11:59:09.241Z,393.75
2023-02-15T12:00:10.347Z,877.5
2023-02-15T12:01:12.460Z,1125
2023-02-15T12:02:13.475Z,1130.63
2023-02-15T12:03:12.938Z,1113.75
2023-02-15T12:04:13.416Z,1147.5
2023-02-15T12:05:13.670Z,1040.63
2023-02-15T12:06:14.185Z,945
2023-02-15T12:07:18.920Z,950.63
2023-02-15T12:08:16.289Z,933.75
2023-02-15T12:09:17.532Z,697.5
2023-02-15T12:10:17.852Z,641.25
2023-02-15T12:11:18.132Z,444.38
2023-02-15T12:12:18.861Z,354.38
2023-02-15T12:13:20.510Z,416.25
2023-02-15T12:14:20.776Z,635.63
2023-02-15T12:15:20.731Z,933.75
2023-02-15T12:16:23.459Z,967.5
2023-02-15T12:17:22.427Z,753.75
2023-02-15T12:18:22.638Z,540
2023-02-15T12:19:22.867Z,438.75
2023-02-15T12:20:23.090Z,331.88
2023-02-15T12:21:23.324Z,421.88
2023-02-15T12:22:25.966Z,556.88
2023-02-15T12:23:24.213Z,601.88
2023-02-15T12:24:24.467Z,618.75
2023-02-15T12:25:25.719Z,646.88
2023-02-15T12:26:25.364Z,630
2023-02-15T12:27:26.679Z,483.75
2023-02-15T12:28:27.484Z,466.88
2023-02-15T12:29:27.469Z,500.63
2023-02-15T12:30:28.611Z,438.75
2023-02-15T12:31:29.568Z,528.75
2023-02-15T12:32:30.129Z,596.25
2023-02-15T12:33:29.506Z,601.88
2023-02-15T12:34:30.455Z,545.63
2023-02-15T12:35:31.678Z,523.13
2023-02-15T12:36:31.646Z,450
2023-02-15T12:37:33.169Z,421.88
2023-02-15T12:38:33.385Z,461.25
2023-02-15T12:39:34.370Z,523.13
2023-02-15T12:40:36.641Z,517.5
2023-02-15T12:41:34.305Z,540
2023-02-15T12:42:35.863Z,641.25
2023-02-15T12:43:36.252Z,635.63
2023-02-15T12:44:36.798Z,540
2023-02-15T12:45:37.370Z,393.75
2023-02-15T12:46:44.780Z,303.75
2023-02-15T12:47:40.629Z,382.5
2023-02-15T12:48:40.592Z,630
2023-02-15T12:49:38.202Z,669.38
2023-02-15T12:50:46.323Z,545.63
2023-02-15T12:51:43.125Z,725.63
2023-02-15T12:52:39.501Z,866.25
2023-02-15T12:53:40.127Z,725.63
2023-02-15T12:54:40.012Z,652.5
2023-02-15T12:55:45.300Z,573.75
2023-02-15T12:56:41.983Z,478.13
2023-02-15T12:57:42.647Z,438.75
2023-02-15T12:58:43.092Z,438.75
2023-02-15T12:59:44.725Z,421.88
2023-02-15T13:00:44.499Z,421.88
2023-02-15T13:01:44.827Z,399.38
2023-02-15T13:02:45.080Z,433.13
2023-02-15T13:03:45.360Z,478.13
2023-02-15T13:04:45.884Z,495
2023-02-15T13:05:45.849Z,461.25
2023-02-15T13:06:46.828Z,433.13
2023-02-15T13:07:48.047Z,416.25
2023-02-15T13:08:47.404Z,376.88
2023-02-15T13:09:48.342Z,298.13
2023-02-15T13:10:49.687Z,348.75
2023-02-15T13:11:49.926Z,331.88
2023-02-15T13:12:50.596Z,303.75
2023-02-15T13:13:51.920Z,309.38
2023-02-15T13:14:51.867Z,371.25
2023-02-15T13:15:53.172Z,410.63
2023-02-15T13:16:54.886Z,399.38
2023-02-15T13:17:55.097Z,393.75
2023-02-15T13:18:55.339Z,388.13
2023-02-15T13:19:56.299Z,382.5
2023-02-15T13:20:56.665Z,360
2023-02-15T13:21:56.611Z,337.5
2023-02-15T13:22:57.829Z,303.75
2023-02-15T13:23:58.643Z,292.5
2023-02-15T13:24:59.350Z,326.25
2023-02-15T13:25:59.570Z,354.38
2023-02-15T13:27:15.290Z,348.75
2023-02-15T13:28:00.368Z,326.25
2023-02-15T13:29:01.022Z,315
2023-02-15T13:30:01.246Z,326.25
2023-02-15T13:31:01.578Z,326.25
2023-02-15T13:32:03.159Z,326.25
2023-02-15T13:33:03.401Z,320.63
2023-02-15T13:34:03.324Z,303.75
2023-02-15T13:35:06.490Z,292.5
2023-02-15T13:36:04.780Z,281.25
2023-02-15T13:37:05.032Z,292.5
2023-02-15T13:38:05.255Z,298.13
2023-02-15T13:39:05.495Z,292.5
2023-02-15T13:40:05.723Z,292.5